createdAt,value
2017-09-17T08:58:30.789Z,15.00
2017-09-17T09:03:33.050Z,15.20
2017-09-17T09:06:00.538Z,15.30
2017-09-17T09:08:28.047Z,14.80
2017-09-17T09:10:55.561Z,14.80
2017-09-17T09:13:23.851Z,14.90
2017-09-17T09:15:51.352Z,14.90
2017-09-17T09:18:18.826Z,15.10
2017-09-17T09:20:46.347Z,15.20
2017-09-17T09:23:14.019Z,15.60
2017-09-17T09:25:41.529Z,15.80
2017-09-17T09:28:38.305Z,15.90
2017-09-17T09:31:05.799Z,15.80
2017-09-17T09:33:33.258Z,16.10
2017-09-17T09:36:00.753Z,16.30
2017-09-17T09:38:28.974Z,16.50
2017-09-17T09:40:56.434Z,16.50
2017-09-17T09:43:23.913Z,16.50
2017-09-17T09:45:51.394Z,16.50
2017-09-17T09:48:18.860Z,16.70
2017-09-17T09:50:46.342Z,16.80
2017-09-17T09:53:13.885Z,17.10
2017-09-17T09:55:42.162Z,17.50
2017-09-17T09:58:10.570Z,17.50
2017-09-17T10:00:38.038Z,17.40
2017-09-17T10:03:05.517Z,17.70
2017-09-17T10:05:32.992Z,18.10
2017-09-17T10:08:01.251Z,18.50
2017-09-17T10:10:28.714Z,18.40
2017-09-17T10:12:56.192Z,18.30
2017-09-17T10:15:24.433Z,18.60
2017-09-17T10:17:51.911Z,18.60
2017-09-17T10:20:19.382Z,18.80
2017-09-17T10:22:47.632Z,19.30
2017-09-17T10:25:15.082Z,19.30
2017-09-17T10:27:42.611Z,18.90
2017-09-17T10:30:10.092Z,18.20
2017-09-17T10:32:37.589Z,17.90
2017-09-17T10:35:05.823Z,18.40
2017-09-17T10:37:33.282Z,18.40
2017-09-17T10:40:00.756Z,18.90
2017-09-17T10:42:28.293Z,18.40
2017-09-17T10:44:55.939Z,18.20
2017-09-17T10:47:23.386Z,17.90
2017-09-17T10:49:50.847Z,17.80
2017-09-17T10:52:18.318Z,18.40
2017-09-17T10:54:45.818Z,18.90
2017-09-17T10:57:13.282Z,19.10
2017-09-17T10:59:40.766Z,19.50
2017-09-17T11:02:08.236Z,19.60
2017-09-17T11:04:35.713Z,19.40
2017-09-17T11:07:03.177Z,19.20
2017-09-17T11:09:31.418Z,20.10
2017-09-17T11:11:58.877Z,20.00
2017-09-17T11:14:26.362Z,19.50
2017-09-17T11:16:53.822Z,19.90
2017-09-17T11:19:21.325Z,20.50
2017-09-17T11:21:48.812Z,21.10
2017-09-17T11:24:16.300Z,21.20
2017-09-17T11:26:43.813Z,21.30
2017-09-17T11:29:11.287Z,21.20
2017-09-17T11:31:38.742Z,21.20
2017-09-17T11:34:06.225Z,20.90
2017-09-17T11:36:33.682Z,20.30
2017-09-17T11:39:01.161Z,19.80
2017-09-17T11:41:28.917Z,19.40
2017-09-17T11:43:57.157Z,19.40
2017-09-17T11:46:24.616Z,19.40
2017-09-17T11:48:52.090Z,19.30
2017-09-17T11:51:19.557Z,19.60
2017-09-17T11:53:47.071Z,19.40
2017-09-17T11:56:14.550Z,19.00
2017-09-17T11:58:42.030Z,19.20
2017-09-17T12:01:09.489Z,19.50
2017-09-17T12:03:37.000Z,19.80
2017-09-17T12:06:05.238Z,20.60
2017-09-17T12:08:32.723Z,20.50
2017-09-17T12:11:01.506Z,21.90
2017-09-17T12:13:29.746Z,23.00
2017-09-17T12:15:57.206Z,22.90
2017-09-17T12:18:24.734Z,23.10
2017-09-17T12:20:52.193Z,22.20
2017-09-17T12:23:19.666Z,21.40
2017-09-17T12:25:47.117Z,21.00
2017-09-17T12:28:14.620Z,20.70
2017-09-17T12:30:42.065Z,20.60
2017-09-17T12:33:09.521Z,20.50
2017-09-17T12:35:36.993Z,20.10
2017-09-17T12:38:04.441Z,19.70
2017-09-17T12:40:31.924Z,19.30
2017-09-17T12:43:00.142Z,19.30
2017-09-17T12:45:27.620Z,19.30
2017-09-17T12:47:55.069Z,19.00
2017-09-17T12:50:22.547Z,19.00
2017-09-17T12:52:50.007Z,19.00
2017-09-17T12:55:17.481Z,19.10
2017-09-17T12:57:45.708Z,18.90
2017-09-17T13:00:13.190Z,18.90
2017-09-17T13:02:40.655Z,18.70
2017-09-17T13:05:08.146Z,18.70
2017-09-17T13:07:35.615Z,18.90
2017-09-17T13:10:03.125Z,18.80
2017-09-17T13:12:30.606Z,18.80
2017-09-17T13:14:58.837Z,18.90
2017-09-17T13:17:26.347Z,18.90
2017-09-17T13:19:54.336Z,18.90
2017-09-17T13:22:21.816Z,18.70
2017-09-17T13:24:49.289Z,18.50
2017-09-17T13:27:17.564Z,18.50
2017-09-17T13:29:45.015Z,18.40
2017-09-17T13:32:12.778Z,18.30
2017-09-17T13:34:40.239Z,18.30
2017-09-17T13:37:07.725Z,18.60
2017-09-17T13:39:36.481Z,18.30
2017-09-17T13:42:03.959Z,18.20
2017-09-17T13:44:31.449Z,18.30
2017-09-17T13:46:58.903Z,18.40
2017-09-17T13:49:26.398Z,18.90
2017-09-17T13:51:53.854Z,19.10
2017-09-17T13:54:21.330Z,19.40
2017-09-17T13:56:48.803Z,19.80
2017-09-17T13:59:17.073Z,19.80
2017-09-17T14:01:46.109Z,19.90
2017-09-17T14:04:15.034Z,19.90
2017-09-17T14:06:59.922Z,20.50
2017-09-17T14:12:27.982Z,20.50
2017-09-17T14:14:55.537Z,20.10
2017-09-17T14:17:22.993Z,20.00
2017-09-17T14:19:50.466Z,20.00
2017-09-17T14:22:17.922Z,19.60
2017-09-17T14:24:45.398Z,19.70
2017-09-17T14:27:12.861Z,19.70
2017-09-17T14:29:40.353Z,19.50
2017-09-17T14:32:07.817Z,19.20
2017-09-17T14:34:35.306Z,19.20
2017-09-17T14:37:02.771Z,19.00
2017-09-17T14:39:30.245Z,18.80
2017-09-17T14:41:57.704Z,18.50
2017-09-17T14:44:25.200Z,18.20
2017-09-17T14:46:52.649Z,18.20
2017-09-17T14:49:20.131Z,18.30
2017-09-17T14:51:47.610Z,18.30
2017-09-17T14:54:15.087Z,18.20
2017-09-17T14:56:42.542Z,18.10
2017-09-17T14:59:10.018Z,18.30
2017-09-17T15:01:37.465Z,18.40
2017-09-17T15:04:04.954Z,18.60
2017-09-17T15:06:32.413Z,18.60
2017-09-17T15:09:00.662Z,18.50
2017-09-17T15:11:28.117Z,18.50
2017-09-17T15:13:55.599Z,18.60
2017-09-17T15:16:23.049Z,18.60
2017-09-17T15:18:50.533Z,18.50
2017-09-17T15:21:17.995Z,18.20
2017-09-17T15:23:45.466Z,18.10
2017-09-17T15:26:12.930Z,18.20
2017-09-17T15:28:40.419Z,18.10
2017-09-17T15:31:07.877Z,17.80
2017-09-17T15:33:36.153Z,17.70
2017-09-17T15:36:03.671Z,17.70
2017-09-17T15:38:31.163Z,17.70
2017-09-17T15:40:58.639Z,17.70
2017-09-17T15:43:26.891Z,17.50
2017-09-17T15:45:54.371Z,17.50
2017-09-17T15:48:22.597Z,17.30
2017-09-17T15:50:50.078Z,17.30
2017-09-17T15:53:17.538Z,17.10
2017-09-17T15:55:45.016Z,17.00
2017-09-17T15:58:12.480Z,17.00
2017-09-17T16:00:40.735Z,17.30
2017-09-17T16:03:08.185Z,17.30
2017-09-17T16:05:35.666Z,17.40
2017-09-17T16:08:03.130Z,17.50
2017-09-17T16:10:31.692Z,17.50
2017-09-17T16:12:59.158Z,17.50
2017-09-17T16:15:26.620Z,17.50
2017-09-17T16:17:54.127Z,17.50
2017-09-17T16:20:21.601Z,17.40
2017-09-17T16:22:49.086Z,17.40
2017-09-17T16:25:16.701Z,17.40
2017-09-17T16:27:44.389Z,17.30
2017-09-17T16:30:11.964Z,17.30
2017-09-17T16:32:39.437Z,17.30
2017-09-17T16:35:07.147Z,17.20
2017-09-17T16:37:34.630Z,17.10
2017-09-17T16:40:02.193Z,17.10
2017-09-17T16:42:29.695Z,17.10
2017-09-17T16:44:57.271Z,17.10
2017-09-17T16:47:24.837Z,17.10
2017-09-17T16:49:52.292Z,17.10
2017-09-17T16:52:19.768Z,16.90
2017-09-17T16:54:47.219Z,16.70
2017-09-17T16:57:14.708Z,16.70
2017-09-17T16:59:42.173Z,16.60
2017-09-17T17:02:09.654Z,16.50
2017-09-17T17:04:37.910Z,16.50
2017-09-17T17:07:05.386Z,16.50
2017-09-17T17:09:32.870Z,16.30
2017-09-17T17:12:01.258Z,16.20
2017-09-17T17:14:28.734Z,16.20
2017-09-17T17:16:56.231Z,16.20
2017-09-17T17:19:23.714Z,16.10
2017-09-17T17:21:51.250Z,16.00
2017-09-17T17:24:18.722Z,15.90
2017-09-17T17:26:46.209Z,15.90
2017-09-17T17:29:13.888Z,15.90
2017-09-17T17:31:41.371Z,16.00
2017-09-17T17:34:08.845Z,15.80
2017-09-17T17:36:36.334Z,15.70
2017-09-17T17:39:03.815Z,15.60
2017-09-17T17:41:31.298Z,15.50
2017-09-17T17:43:58.778Z,15.50
2017-09-17T17:46:26.270Z,15.50
2017-09-17T17:48:53.746Z,15.50
2017-09-17T17:51:21.993Z,15.50
2017-09-17T17:53:49.458Z,15.50
2017-09-17T17:56:16.995Z,15.50
2017-09-17T17:58:44.494Z,15.40
2017-09-17T18:01:11.961Z,15.40
2017-09-17T18:03:39.450Z,15.30
2017-09-17T18:06:06.913Z,15.30
2017-09-17T18:08:35.266Z,15.20
2017-09-17T18:11:02.737Z,15.10
2017-09-17T18:13:30.974Z,15.20
2017-09-17T18:15:58.478Z,15.20
2017-09-17T18:18:26.730Z,15.20
2017-09-17T18:20:54.200Z,15.10
2017-09-17T18:23:21.729Z,15.10
2017-09-17T18:25:49.218Z,15.10
2017-09-17T18:28:16.822Z,15.00
2017-09-17T18:30:44.274Z,14.90
2017-09-17T18:33:11.763Z,14.90
2017-09-17T18:35:39.249Z,14.80
2017-09-17T18:38:06.729Z,14.70
2017-09-17T18:40:34.202Z,14.60
2017-09-17T18:43:01.675Z,14.50
2017-09-17T18:45:29.196Z,14.50
2017-09-17T18:47:56.697Z,14.50
2017-09-17T18:50:29.919Z,14.50
2017-09-17T18:52:57.393Z,14.40
2017-09-17T18:55:25.625Z,14.40
2017-09-17T18:57:53.123Z,14.30
2017-09-17T19:00:20.590Z,14.40
2017-09-17T19:02:48.833Z,14.10
2017-09-17T19:05:16.292Z,14.10
2017-09-17T19:07:43.766Z,14.00
2017-09-17T19:10:11.364Z,14.00
2017-09-17T19:12:38.853Z,13.90
2017-09-17T19:15:08.378Z,13.90
2017-09-17T19:17:36.517Z,13.90
2017-09-17T19:20:04.086Z,13.70
2017-09-17T19:22:31.622Z,13.70
2017-09-17T19:24:59.617Z,13.70
2017-09-17T19:27:27.121Z,13.80
2017-09-17T19:29:54.627Z,13.80
2017-09-17T19:32:22.281Z,13.70
2017-09-17T19:34:49.904Z,13.70
2017-09-17T19:37:18.139Z,13.60
2017-09-17T19:39:45.640Z,13.50
2017-09-17T19:42:13.148Z,13.50
2017-09-17T19:44:40.650Z,13.50
2017-09-17T19:47:08.144Z,13.40
2017-09-17T19:49:35.666Z,13.30
2017-09-17T19:52:03.162Z,13.30
2017-09-17T19:54:30.676Z,13.20
2017-09-17T19:56:58.177Z,13.20
2017-09-17T19:59:25.712Z,13.10
2017-09-17T20:01:53.194Z,13.00
2017-09-17T20:04:20.694Z,13.00
2017-09-17T20:06:48.230Z,12.90
2017-09-17T20:09:15.739Z,12.90
2017-09-17T20:11:43.242Z,12.80
2017-09-17T20:14:10.749Z,12.70
2017-09-17T20:16:38.238Z,12.70
2017-09-17T20:19:05.732Z,12.80
2017-09-17T20:21:33.226Z,12.70
2017-09-17T20:24:01.492Z,12.70
2017-09-17T20:26:28.999Z,12.70
2017-09-17T20:28:56.498Z,12.70
2017-09-17T20:31:24.769Z,12.60
2017-09-17T20:33:52.323Z,12.60
2017-09-17T20:36:19.820Z,12.60
2017-09-17T20:38:47.327Z,12.60
2017-09-17T20:41:14.841Z,12.50
2017-09-17T20:43:42.349Z,12.60
2017-09-17T20:46:09.829Z,12.50
2017-09-17T20:48:37.347Z,12.40
2017-09-17T20:51:04.895Z,12.40
2017-09-17T20:53:32.397Z,10.30
2017-09-17T20:55:59.958Z,12.50
2017-09-17T20:58:27.475Z,12.40
2017-09-17T21:00:54.972Z,12.40
2017-09-17T21:03:22.492Z,12.40
2017-09-17T21:05:49.958Z,12.30
2017-09-17T21:08:17.460Z,12.30
2017-09-17T21:10:44.959Z,12.30
2017-09-17T21:13:12.450Z,12.30
2017-09-17T21:15:39.971Z,12.20
2017-09-17T21:18:07.474Z,12.10
2017-09-17T21:20:35.010Z,12.10
2017-09-17T21:23:02.486Z,12.20
2017-09-17T21:25:29.995Z,12.20
2017-09-17T21:27:58.218Z,12.10
2017-09-17T21:30:25.706Z,12.10
2017-09-17T21:32:53.188Z,12.10
2017-09-17T21:35:20.691Z,12.00
2017-09-17T21:37:48.179Z,12.00
2017-09-17T21:40:15.650Z,11.90
2017-09-17T21:42:43.908Z,12.00
2017-09-17T21:45:11.414Z,11.90
2017-09-17T21:47:38.882Z,11.90
2017-09-17T21:50:06.367Z,11.90
2017-09-17T21:52:33.833Z,11.90
2017-09-17T21:55:01.324Z,11.90
2017-09-17T21:57:29.567Z,11.90
2017-09-17T21:59:57.061Z,11.90
2017-09-17T22:02:24.533Z,12.00
2017-09-17T22:04:52.037Z,11.90
2017-09-17T22:07:19.499Z,11.80
2017-09-17T22:09:46.997Z,11.80
2017-09-17T22:12:14.506Z,11.80
2017-09-17T22:14:42.001Z,11.80
2017-09-17T22:17:09.485Z,11.80
2017-09-17T22:19:36.981Z,11.80
2017-09-17T22:22:04.451Z,11.80
2017-09-17T22:24:31.931Z,11.80
2017-09-17T22:26:59.417Z,11.80
2017-09-17T22:29:26.894Z,11.80
2017-09-17T22:31:54.381Z,11.70
2017-09-17T22:34:21.847Z,11.60
2017-09-17T22:36:49.333Z,11.60
2017-09-17T22:39:16.800Z,11.60
2017-09-17T22:41:44.274Z,11.70
2017-09-17T22:44:11.763Z,11.60
2017-09-17T22:46:39.237Z,11.60
2017-09-17T22:49:06.713Z,11.60
2017-09-17T22:51:34.208Z,11.60
2017-09-17T22:54:01.669Z,11.60
2017-09-17T22:56:29.139Z,11.60
2017-09-17T22:58:56.630Z,11.60
2017-09-17T23:01:24.882Z,11.50
2017-09-17T23:03:52.367Z,11.50
2017-09-17T23:06:20.597Z,11.50
2017-09-17T23:08:48.073Z,11.40
2017-09-17T23:11:15.558Z,11.50
2017-09-17T23:13:43.782Z,11.40
2017-09-17T23:16:11.253Z,11.40
2017-09-17T23:18:38.722Z,11.40
2017-09-17T23:21:06.201Z,11.40
2017-09-17T23:23:33.695Z,11.40
2017-09-17T23:26:01.174Z,11.40
2017-09-17T23:28:28.650Z,11.40
2017-09-17T23:30:56.139Z,11.50
2017-09-17T23:33:24.361Z,11.40
2017-09-17T23:35:51.886Z,11.50
2017-09-17T23:38:19.378Z,11.50
2017-09-17T23:40:46.838Z,11.50
2017-09-17T23:43:14.309Z,11.60
2017-09-17T23:45:41.793Z,11.60
2017-09-17T23:48:10.030Z,11.60
2017-09-17T23:50:37.491Z,11.60
2017-09-17T23:53:04.970Z,11.60
2017-09-17T23:55:32.426Z,11.60
2017-09-17T23:57:59.927Z,11.50
